createdAt,value
2019-01-04T00:01:53.448Z,18.60
2019-01-04T00:04:51.430Z,18.60
2019-01-04T00:07:46.491Z,18.60
2019-01-04T00:10:42.737Z,18.60
2019-01-04T00:13:38.270Z,18.60
2019-01-04T00:16:36.565Z,18.60
2019-01-04T00:19:32.017Z,18.60
2019-01-04T00:22:27.384Z,18.60
2019-01-04T00:25:25.627Z,18.50
2019-01-04T00:28:20.883Z,18.50
2019-01-04T00:31:16.444Z,18.50
2019-01-04T00:34:12.274Z,18.50
2019-01-04T00:37:08.658Z,18.50
2019-01-04T00:40:03.934Z,18.50
2019-01-04T00:42:59.273Z,18.50
2019-01-04T00:45:55.025Z,18.50
2019-01-04T00:48:50.373Z,18.40
2019-01-04T00:51:48.364Z,18.40
2019-01-04T00:54:43.924Z,18.50
2019-01-04T00:58:11.119Z,18.40
2019-01-04T01:02:00.956Z,18.40
2019-01-04T01:05:33.114Z,18.40
2019-01-04T01:09:19.223Z,18.40
2019-01-04T01:13:14.975Z,18.30
2019-01-04T01:16:49.096Z,18.30
2019-01-04T01:20:24.726Z,18.30
2019-01-04T01:24:04.610Z,18.30
2019-01-04T01:27:41.380Z,18.30
2019-01-04T01:31:30.204Z,18.30
2019-01-04T01:35:16.383Z,18.30
2019-01-04T01:38:46.369Z,18.30
2019-01-04T01:42:15.778Z,18.30
2019-01-04T01:45:48.803Z,18.30
2019-01-04T01:49:25.719Z,18.30
2019-01-04T01:52:28.559Z,18.30
2019-01-04T01:55:24.774Z,18.30
2019-01-04T01:58:20.246Z,18.30
2019-01-04T02:01:17.659Z,18.30
2019-01-04T02:04:15.148Z,18.30
2019-01-04T02:07:07.858Z,18.30
2019-01-04T02:10:03.397Z,18.40
2019-01-04T02:13:02.926Z,18.40
2019-01-04T02:15:58.436Z,18.40
2019-01-04T02:18:54.055Z,18.40
2019-01-04T02:21:49.689Z,18.40
2019-01-04T02:24:45.143Z,18.50
2019-01-04T02:27:43.270Z,18.50
2019-01-04T02:30:38.496Z,18.50
2019-01-04T02:33:35.069Z,18.50
2019-01-04T02:36:33.252Z,18.50
2019-01-04T02:39:28.531Z,18.60
2019-01-04T02:42:24.014Z,18.60
2019-01-04T02:45:22.073Z,18.60
2019-01-04T02:48:17.736Z,18.60
2019-01-04T02:51:14.094Z,18.70
2019-01-04T02:54:09.823Z,18.70
2019-01-04T02:57:05.127Z,18.70
2019-01-04T03:00:00.810Z,18.80
2019-01-04T03:02:57.418Z,18.80
2019-01-04T03:05:53.195Z,18.80
2019-01-04T03:08:48.849Z,18.90
2019-01-04T03:11:45.558Z,18.90
2019-01-04T03:14:42.492Z,18.90
2019-01-04T03:17:38.359Z,18.90
2019-01-04T03:20:33.951Z,19.00
2019-01-04T03:23:32.403Z,19.10
2019-01-04T03:26:27.668Z,19.10
2019-01-04T03:29:23.179Z,19.10
2019-01-04T03:32:18.778Z,19.20
2019-01-04T03:35:14.269Z,19.20
2019-01-04T03:38:13.058Z,19.30
2019-01-04T03:41:11.672Z,19.30
2019-01-04T03:44:07.095Z,19.40
2019-01-04T03:47:02.616Z,19.40
2019-01-04T03:49:57.986Z,19.50
2019-01-04T03:52:53.768Z,19.50
2019-01-04T03:55:48.766Z,19.60
2019-01-04T03:58:52.405Z,19.60
2019-01-04T04:01:45.457Z,19.60
2019-01-04T04:04:41.103Z,19.70
2019-01-04T04:07:36.942Z,19.70
2019-01-04T04:10:33.119Z,19.80
2019-01-04T04:13:29.105Z,19.80
2019-01-04T04:16:34.103Z,19.90
2019-01-04T04:19:29.873Z,19.90
2019-01-04T04:22:28.257Z,20.00
2019-01-04T04:25:28.559Z,20.00
2019-01-04T04:28:21.183Z,20.00
2019-01-04T04:31:17.265Z,20.10
2019-01-04T04:34:13.510Z,20.20
2019-01-04T04:37:09.398Z,20.20
2019-01-04T04:40:05.325Z,20.30
2019-01-04T04:43:00.517Z,20.30
2019-01-04T04:45:56.197Z,20.40
2019-01-04T04:48:52.499Z,20.40
2019-01-04T04:51:49.284Z,20.50
2019-01-04T04:54:45.646Z,20.50
2019-01-04T04:57:41.192Z,20.60
2019-01-04T05:00:36.807Z,20.70
2019-01-04T05:03:32.758Z,20.70
2019-01-04T05:06:39.176Z,20.80
2019-01-04T05:09:38.137Z,20.90
2019-01-04T05:12:33.667Z,21.00
2019-01-04T05:15:29.478Z,21.10
2019-01-04T05:18:25.382Z,21.20
2019-01-04T05:21:26.172Z,21.20
2019-01-04T05:24:31.814Z,21.30
2019-01-04T05:27:36.521Z,21.40
2019-01-04T05:30:47.412Z,21.50
2019-01-04T05:33:49.933Z,21.50
2019-01-04T05:36:44.001Z,21.60
2019-01-04T05:39:45.067Z,21.70
2019-01-04T06:31:48.673Z,22.90
2019-01-04T06:37:56.255Z,23.10
2019-01-04T06:40:57.496Z,23.20
2019-01-04T06:44:05.996Z,23.40
2019-01-04T06:57:03.459Z,23.80
2019-01-04T07:00:02.403Z,23.90
2019-01-04T07:03:12.987Z,24.00
2019-01-04T07:06:20.172Z,24.10
2019-01-04T07:12:42.049Z,24.30
2019-01-04T07:19:15.565Z,24.50
2019-01-04T07:23:19.536Z,24.70
2019-01-04T07:48:29.732Z,26.20
2019-01-04T07:57:46.911Z,26.20
2019-01-04T08:02:39.252Z,26.00
2019-01-04T08:06:28.552Z,26.00
2019-01-04T08:12:51.470Z,26.10
2019-01-04T08:16:10.557Z,26.20
2019-01-04T08:19:10.215Z,26.40
2019-01-04T08:31:42.737Z,26.70
2019-01-04T08:35:04.761Z,26.70
2019-01-04T08:41:26.994Z,26.80
2019-01-04T08:47:43.504Z,26.80
2019-01-04T08:50:40.182Z,26.80
2019-01-04T09:06:57.717Z,26.80
2019-01-04T09:10:05.420Z,26.80
2019-01-04T09:26:40.778Z,27.40
2019-01-04T09:29:33.119Z,27.50
2019-01-04T09:35:51.707Z,27.80
2019-01-04T09:42:21.961Z,28.20
2019-01-04T09:45:18.296Z,28.40
2019-01-04T09:48:36.841Z,28.50
2019-01-04T10:01:08.809Z,28.80
2019-01-04T10:04:04.787Z,28.70
2019-01-04T10:07:05.839Z,28.60
2019-01-04T10:10:08.831Z,28.50
2019-01-04T10:13:03.990Z,28.30
2019-01-04T10:16:08.451Z,28.20
2019-01-04T10:19:04.645Z,28.10
2019-01-04T10:22:00.794Z,28.00
2019-01-04T10:25:09.788Z,27.90
2019-01-04T10:38:57.234Z,27.70
2019-01-04T10:48:20.202Z,27.60
2019-01-04T11:39:56.499Z,26.20
2019-01-04T11:46:12.607Z,26.00
2019-01-04T11:53:50.137Z,25.70
2019-01-04T11:57:30.701Z,25.50
2019-01-04T12:01:06.376Z,25.40
2019-01-04T12:04:17.275Z,25.30
2019-01-04T12:11:46.648Z,25.00
2019-01-04T12:14:45.654Z,24.90
2019-01-04T12:17:44.945Z,24.80
2019-01-04T12:20:45.409Z,24.70
2019-01-04T12:23:57.813Z,24.60
2019-01-04T12:27:10.923Z,24.50
2019-01-04T12:30:09.550Z,24.40
2019-01-04T12:33:38.687Z,24.40
2019-01-04T12:36:35.821Z,24.30
2019-01-04T12:39:32.920Z,24.20
2019-01-04T12:42:29.116Z,24.20
2019-01-04T12:45:25.887Z,24.10
2019-01-04T12:48:23.241Z,24.10
2019-01-04T12:51:23.373Z,24.00
2019-01-04T12:54:22.354Z,24.00
2019-01-04T12:57:18.734Z,23.90
2019-01-04T13:00:17.110Z,23.90
2019-01-04T13:03:26.553Z,23.80
2019-01-04T13:06:26.721Z,23.80
2019-01-04T13:09:33.166Z,23.70
2019-01-04T13:12:36.143Z,23.70
2019-01-04T13:15:38.232Z,23.60
2019-01-04T13:18:36.055Z,23.60
2019-01-04T13:21:36.271Z,23.50
2019-01-04T13:24:32.811Z,23.50
2019-01-04T13:27:32.704Z,23.40
2019-01-04T13:30:41.249Z,23.40
2019-01-04T13:33:42.105Z,23.40
2019-01-04T13:36:38.771Z,23.30
2019-01-04T13:39:36.203Z,23.30
2019-01-04T13:42:32.569Z,23.20
2019-01-04T13:45:29.062Z,23.20
2019-01-04T13:48:26.464Z,23.20
2019-01-04T13:51:23.982Z,23.10
2019-01-04T13:54:21.460Z,23.10
2019-01-04T13:57:18.061Z,23.10
2019-01-04T14:00:15.646Z,23.00
2019-01-04T14:03:16.075Z,23.00
2019-01-04T14:06:21.945Z,23.00
2019-01-04T14:09:21.265Z,22.90
2019-01-04T14:12:18.121Z,22.90
2019-01-04T14:15:15.954Z,22.90
2019-01-04T14:18:13.104Z,22.90
2019-01-04T14:21:10.218Z,22.80
2019-01-04T14:24:07.591Z,22.80
2019-01-04T14:27:18.884Z,22.80
2019-01-04T14:30:23.849Z,22.80
2019-01-04T14:33:22.127Z,22.70
2019-01-04T14:36:25.124Z,22.70
2019-01-04T14:39:26.201Z,22.70
2019-01-04T14:42:44.787Z,22.60
2019-01-04T14:45:46.404Z,22.60
2019-01-04T14:48:51.821Z,22.60
2019-01-04T14:51:57.482Z,22.50
2019-01-04T14:55:03.625Z,22.50
2019-01-04T14:58:08.980Z,22.40
2019-01-04T15:01:14.125Z,22.40
2019-01-04T15:04:17.915Z,22.40
2019-01-04T15:07:23.739Z,22.30
2019-01-04T15:10:23.915Z,22.30
2019-01-04T15:13:31.412Z,22.30
2019-01-04T15:16:37.232Z,22.20
2019-01-04T15:19:42.915Z,22.20
2019-01-04T15:22:47.745Z,22.20
2019-01-04T15:25:53.821Z,22.10
2019-01-04T15:28:56.395Z,22.10
2019-01-04T15:32:03.992Z,22.10
2019-01-04T15:35:07.097Z,22.10
2019-01-04T15:38:12.481Z,22.00
2019-01-04T15:41:17.240Z,22.00
2019-01-04T15:44:22.514Z,21.90
2019-01-04T15:47:23.867Z,21.90
2019-01-04T15:50:33.305Z,21.90
2019-01-04T15:53:35.776Z,21.90
2019-01-04T15:56:41.153Z,21.80
2019-01-04T15:59:47.194Z,21.80
2019-01-04T16:02:52.333Z,21.80
2019-01-04T16:05:58.086Z,21.80
2019-01-04T16:09:04.555Z,21.70
2019-01-04T16:12:09.617Z,21.70
2019-01-04T16:15:24.764Z,21.70
2019-01-04T16:18:26.324Z,21.70
2019-01-04T16:21:32.383Z,21.60
2019-01-04T16:24:37.934Z,21.60
2019-01-04T16:27:43.688Z,21.60
2019-01-04T16:30:53.376Z,21.50
2019-01-04T16:33:59.910Z,21.50
2019-01-04T16:37:05.332Z,21.50
2019-01-04T16:40:15.064Z,21.50
2019-01-04T16:43:17.274Z,21.50
2019-01-04T16:46:19.960Z,21.50
2019-01-04T16:49:25.301Z,21.40
2019-01-04T16:52:28.909Z,21.40
2019-01-04T16:55:34.563Z,21.40
2019-01-04T16:58:41.151Z,21.40
2019-01-04T17:01:46.168Z,21.40
2019-01-04T17:04:51.524Z,21.30
2019-01-04T17:07:57.067Z,21.30
2019-01-04T17:11:05.383Z,21.30
2019-01-04T17:14:09.922Z,21.30
2019-01-04T17:17:17.530Z,21.30
2019-01-04T17:20:22.956Z,21.20
2019-01-04T17:23:28.401Z,21.20
2019-01-04T17:26:33.745Z,21.20
2019-01-04T17:29:42.999Z,21.20
2019-01-04T17:32:45.870Z,21.20
2019-01-04T17:35:49.690Z,21.10
2019-01-04T17:38:53.981Z,21.10
2019-01-04T17:42:01.702Z,21.10
2019-01-04T17:45:06.652Z,21.00
2019-01-04T17:48:11.574Z,21.00
2019-01-04T17:51:12.116Z,21.00
2019-01-04T17:54:12.850Z,21.00
2019-01-04T17:57:20.237Z,21.00
2019-01-04T18:00:25.991Z,20.90
2019-01-04T18:03:27.143Z,21.00
2019-01-04T18:06:35.766Z,20.90
2019-01-04T18:09:43.151Z,20.90
2019-01-04T18:12:48.513Z,20.90
2019-01-04T18:15:54.887Z,20.90
2019-01-04T18:19:00.722Z,20.80
2019-01-04T18:22:05.669Z,20.80
2019-01-04T18:25:06.404Z,20.80
2019-01-04T18:28:08.271Z,20.80
2019-01-04T18:31:10.639Z,20.80
2019-01-04T18:34:13.735Z,20.70
2019-01-04T18:37:15.090Z,20.70
2019-01-04T18:40:21.046Z,20.70
2019-01-04T18:43:22.779Z,20.70
2019-01-04T18:46:26.612Z,20.70
2019-01-04T18:49:32.178Z,20.70
2019-01-04T18:52:37.202Z,20.70
2019-01-04T18:55:42.549Z,20.70
2019-01-04T18:58:47.894Z,20.70
2019-01-04T19:01:53.035Z,20.70
2019-01-04T19:04:59.094Z,20.70
2019-01-04T19:08:04.970Z,20.70
2019-01-04T19:11:06.496Z,20.70
2019-01-04T19:14:07.864Z,20.70
2019-01-04T19:17:08.701Z,20.70
2019-01-04T19:20:13.734Z,20.70
2019-01-04T19:23:18.880Z,20.60
2019-01-04T19:26:24.628Z,20.60
2019-01-04T19:29:29.289Z,20.60
2019-01-04T19:32:32.249Z,20.60
2019-01-04T19:35:37.087Z,20.60
2019-01-04T19:38:41.505Z,20.50
2019-01-04T19:41:46.544Z,20.50
2019-01-04T19:44:51.377Z,20.50
2019-01-04T19:47:59.086Z,20.40
2019-01-04T19:50:59.613Z,20.40
2019-01-04T19:54:05.261Z,20.40
2019-01-04T19:57:13.784Z,20.40
2019-01-04T20:00:18.719Z,20.40
2019-01-04T20:03:25.907Z,20.40
2019-01-04T20:07:03.816Z,20.30
2019-01-04T20:10:25.649Z,20.30
2019-01-04T20:13:54.964Z,20.30
2019-01-04T20:17:21.004Z,20.20
2019-01-04T20:20:50.219Z,20.20
2019-01-04T20:24:12.638Z,20.20
2019-01-04T20:27:42.866Z,20.20
2019-01-04T20:31:12.383Z,20.10
2019-01-04T20:34:33.392Z,20.10
2019-01-04T20:38:00.645Z,20.10
2019-01-04T20:41:16.542Z,20.10
2019-01-04T20:44:45.221Z,20.10
2019-01-04T20:48:04.509Z,20.00
2019-01-04T20:51:26.004Z,20.00
2019-01-04T20:54:48.897Z,20.00
2019-01-04T20:58:09.388Z,20.00
2019-01-04T21:01:32.860Z,19.90
2019-01-04T21:04:51.900Z,19.90
2019-01-04T21:08:07.723Z,19.90
2019-01-04T21:11:29.151Z,19.90
2019-01-04T21:14:49.398Z,19.90
2019-01-04T21:18:20.994Z,19.90
2019-01-04T21:21:44.465Z,19.90
2019-01-04T21:25:12.961Z,19.90
2019-01-04T21:28:32.743Z,19.90
2019-01-04T21:32:01.328Z,19.90
2019-01-04T21:35:18.040Z,19.90
2019-01-04T21:38:38.855Z,19.90
2019-01-04T21:42:10.002Z,19.90
2019-01-04T21:45:47.502Z,19.90
2019-01-04T21:49:08.202Z,19.80
2019-01-04T21:52:33.741Z,19.80
2019-01-04T21:55:55.249Z,19.80
2019-01-04T21:59:16.567Z,19.70
2019-01-04T22:02:44.435Z,19.70
2019-01-04T22:06:13.242Z,19.70
2019-01-04T22:09:33.032Z,19.70
2019-01-04T22:13:10.839Z,19.60
2019-01-04T22:16:32.153Z,19.60
2019-01-04T22:20:09.868Z,19.60
2019-01-04T22:23:36.686Z,19.60
2019-01-04T22:26:59.152Z,19.50
2019-01-04T22:30:18.237Z,19.50
2019-01-04T22:33:50.287Z,19.50
2019-01-04T22:37:17.315Z,19.50
2019-01-04T22:40:44.399Z,19.40
2019-01-04T22:44:11.564Z,19.40
2019-01-04T22:47:34.947Z,19.40
2019-01-04T22:51:12.228Z,19.40
2019-01-04T22:54:53.195Z,19.40
2019-01-04T22:58:15.543Z,19.30
2019-01-04T23:05:06.163Z,19.30
2019-01-04T23:08:45.297Z,19.20
2019-01-04T23:12:23.309Z,19.20
2019-01-04T23:16:06.393Z,19.20
2019-01-04T23:19:25.415Z,19.20
2019-01-04T23:22:46.633Z,19.20
2019-01-04T23:26:07.942Z,19.20
2019-01-04T23:29:45.254Z,19.20
2019-01-04T23:33:08.279Z,19.20
2019-01-04T23:36:31.360Z,19.10
2019-01-04T23:39:52.882Z,19.10
2019-01-04T23:43:16.968Z,19.10
2019-01-04T23:46:49.348Z,19.10
2019-01-04T23:50:13.839Z,19.00
2019-01-04T23:53:52.270Z,19.00
2019-01-04T23:57:14.204Z,19.00
